createdAt,value
2018-10-05T00:01:11.370Z,96215.27
2018-10-05T00:03:40.486Z,96216.34
2018-10-05T00:06:09.748Z,96212.16
2018-10-05T00:08:38.980Z,96211.72
2018-10-05T00:11:08.301Z,96210.02
2018-10-05T00:13:37.409Z,96201.09
2018-10-05T00:16:06.536Z,96203.38
2018-10-05T00:18:35.691Z,96210.66
2018-10-05T00:21:04.770Z,96199.48
2018-10-05T00:23:33.688Z,96194.54
2018-10-05T00:26:02.888Z,96192.72
2018-10-05T00:28:31.980Z,96189.43
2018-10-05T00:31:01.417Z,96192.16
2018-10-05T00:33:30.724Z,96184.33
2018-10-05T00:35:59.914Z,96183.44
2018-10-05T00:38:29.035Z,96187.54
2018-10-05T00:40:59.886Z,96187.61
2018-10-05T00:43:30.091Z,96194.16
2018-10-05T00:45:59.249Z,96194.23
2018-10-05T00:48:28.390Z,96196.35
2018-10-05T00:50:57.652Z,96198.62
2018-10-05T00:53:26.766Z,96199.45
2018-10-05T00:55:55.919Z,96196.59
2018-10-05T00:58:25.234Z,96193.67
2018-10-05T01:00:54.426Z,96205.58
2018-10-05T01:03:23.647Z,96204.73
2018-10-05T01:05:53.157Z,96206.35
2018-10-05T01:08:22.222Z,96197.49
2018-10-05T01:10:51.303Z,96193.64
2018-10-05T01:13:20.427Z,96194.33
2018-10-05T01:15:49.451Z,96192.89
2018-10-05T01:18:19.634Z,96193.67
2018-10-05T01:20:49.803Z,96196.83
2018-10-05T01:23:18.911Z,96196.10
2018-10-05T01:25:48.105Z,96194.98
2018-10-05T01:28:17.323Z,96192.94
2018-10-05T01:30:46.503Z,96193.44
2018-10-05T01:33:15.690Z,96206.77
2018-10-05T01:35:44.906Z,96199.19
2018-10-05T01:38:14.038Z,96195.30
2018-10-05T01:40:43.369Z,96194.36
2018-10-05T01:43:12.471Z,96195.89
2018-10-05T01:45:41.738Z,96190.53
2018-10-05T01:48:10.793Z,96196.08
2018-10-05T01:50:39.847Z,96203.09
2018-10-05T01:53:08.971Z,96212.65
2018-10-05T01:55:37.986Z,96213.73
2018-10-05T01:58:07.090Z,96210.91
2018-10-05T02:00:36.210Z,96211.14
2018-10-05T02:03:05.450Z,96203.44
2018-10-05T02:05:34.742Z,96208.27
2018-10-05T02:08:03.982Z,96209.27
2018-10-05T02:10:32.974Z,96211.48
2018-10-05T02:13:02.318Z,96215.77
2018-10-05T02:15:31.491Z,96212.68
2018-10-05T02:18:00.495Z,96213.85
2018-10-05T02:20:30.610Z,96211.75
2018-10-05T02:23:00.400Z,96214.33
2018-10-05T02:25:29.435Z,96212.97
2018-10-05T02:27:58.815Z,96219.98
2018-10-05T02:30:28.000Z,96217.98
2018-10-05T02:32:57.150Z,96219.05
2018-10-05T02:35:26.289Z,96226.06
2018-10-05T02:37:55.471Z,96228.44
2018-10-05T02:40:24.560Z,96219.56
2018-10-05T02:42:53.562Z,96225.52
2018-10-05T02:45:22.615Z,96221.66
2018-10-05T02:47:51.723Z,96226.30
2018-10-05T02:50:21.219Z,96219.09
2018-10-05T02:52:50.350Z,96224.00
2018-10-05T02:55:19.446Z,96216.09
2018-10-05T02:57:48.943Z,96221.79
2018-10-05T03:00:28.926Z,96222.88
2018-10-05T03:02:58.664Z,96223.23
2018-10-05T03:05:27.770Z,96227.71
2018-10-05T03:07:57.014Z,96231.05
2018-10-05T03:10:26.188Z,96231.41
2018-10-05T03:12:55.207Z,96232.19
2018-10-05T03:15:24.279Z,96226.53
2018-10-05T03:17:53.642Z,96228.95
2018-10-05T03:20:22.652Z,96226.02
2018-10-05T03:22:52.244Z,96228.01
2018-10-05T03:25:21.587Z,96227.53
2018-10-05T03:27:50.741Z,96233.18
2018-10-05T03:30:19.933Z,96228.86
2018-10-05T03:32:48.974Z,96225.07
2018-10-05T03:35:18.074Z,96221.44
2018-10-05T03:37:47.131Z,96228.22
2018-10-05T03:40:16.351Z,96227.34
2018-10-05T03:42:45.514Z,96227.30
2018-10-05T03:45:14.579Z,96234.28
2018-10-05T03:47:43.649Z,96231.48
2018-10-05T03:50:13.300Z,96239.04
2018-10-05T03:52:42.531Z,96234.59
2018-10-05T03:55:11.777Z,96236.58
2018-10-05T03:57:40.830Z,96232.10
2018-10-05T04:00:09.964Z,96234.83
2018-10-05T04:02:39.278Z,96237.23
2018-10-05T04:05:08.424Z,96236.52
2018-10-05T04:07:37.586Z,96238.66
2018-10-05T04:10:07.078Z,96239.22
2018-10-05T04:12:36.138Z,96237.23
2018-10-05T04:15:05.345Z,96233.11
2018-10-05T04:17:34.739Z,96240.51
2018-10-05T04:20:03.922Z,96242.06
2018-10-05T04:22:33.030Z,96242.06
2018-10-05T04:25:02.416Z,96234.08
2018-10-05T04:27:31.221Z,96226.84
2018-10-05T04:30:00.389Z,96228.41
2018-10-05T04:32:29.616Z,96229.56
2018-10-05T04:34:58.886Z,96225.48
2018-10-05T04:37:28.008Z,96228.05
2018-10-05T04:39:57.423Z,96230.62
2018-10-05T04:42:26.687Z,96231.89
2018-10-05T04:44:55.818Z,96232.25
2018-10-05T04:47:25.371Z,96240.43
2018-10-05T04:49:54.393Z,96247.19
2018-10-05T04:52:23.551Z,96255.69
2018-10-05T04:54:52.945Z,96256.98
2018-10-05T04:57:22.072Z,96257.97
2018-10-05T04:59:51.387Z,96260.52
2018-10-05T05:02:20.622Z,96255.19
2018-10-05T05:04:49.736Z,96266.35
2018-10-05T05:07:18.987Z,96263.70
2018-10-05T05:09:48.366Z,96265.92
2018-10-05T05:12:48.447Z,96275.91
2018-10-05T05:15:17.467Z,96270.34
2018-10-05T05:17:46.575Z,96278.14
2018-10-05T05:20:15.707Z,96282.72
2018-10-05T05:22:45.390Z,96283.01
2018-10-05T05:25:14.511Z,96282.42
2018-10-05T05:27:43.437Z,96285.62
2018-10-05T05:30:12.959Z,96281.28
2018-10-05T05:32:42.219Z,96285.67
2018-10-05T05:35:11.531Z,96289.31
2018-10-05T05:37:40.689Z,96298.28
2018-10-05T05:40:09.980Z,96299.84
2018-10-05T05:42:39.127Z,96301.83
2018-10-05T05:45:08.779Z,96298.75
2018-10-05T05:47:37.862Z,96303.02
2018-10-05T05:50:06.951Z,96297.94
2018-10-05T05:52:36.244Z,96308.39
2018-10-05T05:55:05.394Z,96308.39
2018-10-05T05:57:34.456Z,96301.34
2018-10-05T06:00:04.120Z,96309.09
2018-10-05T06:02:33.504Z,96302.81
2018-10-05T06:05:02.563Z,96313.20
2018-10-05T06:07:32.027Z,96313.64
2018-10-05T06:10:01.216Z,96314.30
2018-10-05T06:12:30.414Z,96314.53
2018-10-05T06:14:59.904Z,96317.53
2018-10-05T06:17:28.787Z,96312.09
2018-10-05T06:19:57.799Z,96312.45
2018-10-05T06:22:27.576Z,96313.91
2018-10-05T06:24:56.511Z,96316.31
2018-10-05T06:27:25.596Z,96312.86
2018-10-05T06:29:55.335Z,96314.15
2018-10-05T06:32:24.462Z,96308.76
2018-10-05T06:34:53.571Z,96312.64
2018-10-05T06:37:25.713Z,96304.42
2018-10-05T06:39:54.830Z,96306.64
2018-10-05T06:42:24.049Z,96305.39
2018-10-05T06:44:53.617Z,96311.33
2018-10-05T06:47:22.783Z,96312.02
2018-10-05T06:49:52.016Z,96305.27
2018-10-05T06:52:21.178Z,96301.72
2018-10-05T06:54:50.286Z,96309.55
2018-10-05T06:57:19.099Z,96304.77
2018-10-05T06:59:48.584Z,96305.11
2018-10-05T07:02:17.408Z,96304.53
2018-10-05T07:04:46.687Z,96304.29
2018-10-05T07:07:16.011Z,96308.20
2018-10-05T07:09:45.381Z,96300.49
2018-10-05T07:12:14.692Z,96300.53
2018-10-05T07:14:44.264Z,96303.80
2018-10-05T07:17:13.380Z,96296.35
2018-10-05T07:19:42.463Z,96302.16
2018-10-05T07:22:11.651Z,96290.22
2018-10-05T07:24:40.834Z,96299.30
2018-10-05T07:27:10.055Z,96301.00
2018-10-05T07:29:39.453Z,96302.41
2018-10-05T07:32:08.592Z,96299.70
2018-10-05T07:34:37.680Z,96302.20
2018-10-05T07:37:07.261Z,96305.16
2018-10-05T07:39:36.454Z,96302.95
2018-10-05T07:42:05.671Z,96301.41
2018-10-05T07:44:34.922Z,96305.53
2018-10-05T07:47:03.926Z,96307.32
2018-10-05T07:49:33.023Z,96315.31
2018-10-05T07:52:02.315Z,96314.38
2018-10-05T07:54:31.554Z,96307.56
2018-10-05T07:57:00.626Z,96307.16
2018-10-05T07:59:30.062Z,96297.17
2018-10-05T08:01:59.277Z,96298.84
2018-10-05T08:04:28.384Z,96304.97
2018-10-05T08:06:57.652Z,96306.20
2018-10-05T08:09:26.838Z,96305.04
2018-10-05T08:11:55.915Z,96298.06
2018-10-05T08:14:25.394Z,96297.98
2018-10-05T08:16:54.568Z,96304.74
2018-10-05T08:19:23.675Z,96301.16
2018-10-05T08:21:53.203Z,96298.61
2018-10-05T08:24:22.271Z,96297.45
2018-10-05T08:26:51.482Z,96292.48
2018-10-05T08:29:21.096Z,96289.30
2018-10-05T08:31:50.005Z,96290.83
2018-10-05T08:34:19.212Z,96290.23
2018-10-05T08:36:48.712Z,96288.40
2018-10-05T08:39:17.985Z,96289.09
2018-10-05T08:41:47.191Z,96274.73
2018-10-05T08:44:16.594Z,96271.97
2018-10-05T08:46:45.731Z,96281.72
2018-10-05T08:49:14.991Z,96276.02
2018-10-05T08:51:44.539Z,96277.22
2018-10-05T08:54:13.569Z,96271.88
2018-10-05T08:56:42.874Z,96275.77
2018-10-05T08:59:12.450Z,96270.88
2018-10-05T09:01:41.494Z,96264.56
2018-10-05T09:04:10.550Z,96265.23
2018-10-05T09:06:40.051Z,96259.31
2018-10-05T09:09:09.276Z,96255.19
2018-10-05T09:11:38.203Z,96254.56
2018-10-05T09:14:07.831Z,96253.30
2018-10-05T09:16:36.903Z,96253.22
2018-10-05T09:19:06.085Z,96247.82
2018-10-05T09:21:35.636Z,96250.50
2018-10-05T09:24:04.928Z,96239.84
2018-10-05T09:26:34.037Z,96231.42
2018-10-05T09:29:03.463Z,96238.18
2018-10-05T09:31:32.599Z,96235.77
2018-10-05T09:34:01.797Z,96237.52
2018-10-05T09:36:31.175Z,96234.85
2018-10-05T09:39:00.487Z,96224.61
2018-10-05T09:41:29.498Z,96228.17
2018-10-05T09:43:58.914Z,96231.58
2018-10-05T09:46:28.095Z,96233.09
2018-10-05T09:48:57.241Z,96223.55
2018-10-05T09:51:26.555Z,96220.02
2018-10-05T09:53:55.698Z,96211.67
2018-10-05T09:56:24.846Z,96212.84
2018-10-05T09:58:54.186Z,96200.44
2018-10-05T10:01:28.321Z,96204.22
2018-10-05T10:03:57.542Z,96202.83
2018-10-05T10:06:26.617Z,96204.30
2018-10-05T10:08:55.807Z,96194.41
2018-10-05T10:11:25.174Z,96196.83
2018-10-05T10:13:54.358Z,96199.06
2018-10-05T10:16:23.499Z,96192.05
2018-10-05T10:18:52.983Z,96187.67
2018-10-05T10:21:21.938Z,96174.81
2018-10-05T10:23:51.092Z,96179.12
2018-10-05T10:26:20.623Z,96179.38
2018-10-05T10:28:49.882Z,96164.45
2018-10-05T10:31:18.908Z,96160.80
2018-10-05T10:33:48.541Z,96152.02
2018-10-05T10:36:17.703Z,96147.66
2018-10-05T10:38:46.997Z,96148.06
2018-10-05T10:41:16.325Z,96125.22
2018-10-05T10:43:45.391Z,96143.64
2018-10-05T10:46:14.414Z,96133.12
2018-10-05T10:48:43.607Z,96128.00
2018-10-05T10:51:12.862Z,96123.97
2018-10-05T10:53:42.120Z,96115.22
2018-10-05T10:56:11.623Z,96121.50
2018-10-05T10:58:40.767Z,96108.81
2018-10-05T11:01:10.585Z,96107.33
2018-10-05T11:03:39.813Z,96098.60
2018-10-05T11:06:09.043Z,96109.23
2018-10-05T11:08:38.178Z,96098.02
2018-10-05T11:11:07.168Z,96097.61
2018-10-05T11:13:36.326Z,96092.30
2018-10-05T11:16:05.554Z,96088.13
2018-10-05T11:18:34.705Z,96097.25
2018-10-05T11:21:03.736Z,96085.06
2018-10-05T11:23:32.918Z,96094.16
2018-10-05T11:26:01.975Z,96084.92
2018-10-05T11:28:31.022Z,96079.89
2018-10-05T11:31:00.385Z,96081.17
2018-10-05T11:33:29.483Z,96071.89
2018-10-05T11:35:58.702Z,96066.36
2018-10-05T11:38:28.052Z,96067.61
2018-10-05T11:40:57.025Z,96064.34
2018-10-05T11:43:26.198Z,96060.30
2018-10-05T11:45:56.578Z,96057.88
2018-10-05T11:48:26.140Z,96063.88
2018-10-05T11:50:55.250Z,96051.61
2018-10-05T11:53:24.479Z,96057.32
2018-10-05T11:55:53.520Z,96053.28
2018-10-05T11:58:22.790Z,96050.89
2018-10-05T12:00:52.050Z,96045.12
2018-10-05T12:03:21.279Z,96048.00
2018-10-05T12:05:50.543Z,96048.44
2018-10-05T12:08:20.055Z,96045.18
2018-10-05T12:10:49.236Z,96046.90
2018-10-05T12:13:18.379Z,96041.33
2018-10-05T12:15:47.468Z,96041.47
2018-10-05T12:18:16.632Z,96042.47
2018-10-05T12:20:45.635Z,96038.92
2018-10-05T12:23:15.046Z,96037.39
2018-10-05T12:25:44.227Z,96022.51
2018-10-05T12:28:13.161Z,96030.66
2018-10-05T12:30:43.472Z,96026.89
2018-10-05T12:33:12.719Z,96036.52
2018-10-05T12:35:41.820Z,96028.26
2018-10-05T12:38:14.340Z,96018.16
2018-10-05T12:40:43.427Z,96019.55
2018-10-05T12:43:12.533Z,96011.80
2018-10-05T12:45:41.811Z,96022.86
2018-10-05T12:48:10.983Z,96002.92
2018-10-05T12:50:40.046Z,96014.18
2018-10-05T12:53:09.354Z,96000.48
2018-10-05T12:55:38.599Z,96000.55
2018-10-05T12:58:07.811Z,95996.07
2018-10-05T13:00:37.066Z,95997.52
2018-10-05T13:03:06.115Z,96003.08
2018-10-05T13:05:35.374Z,96004.33
2018-10-05T13:08:04.899Z,95991.36
2018-10-05T13:10:34.198Z,95996.97
2018-10-05T13:13:03.449Z,96001.64
2018-10-05T13:15:32.931Z,95984.42
2018-10-05T13:18:02.163Z,95988.70
2018-10-05T13:20:31.238Z,95991.15
2018-10-05T13:23:00.634Z,95986.34
2018-10-05T13:25:29.716Z,95980.14
2018-10-05T13:27:58.819Z,95987.94
2018-10-05T13:30:28.330Z,95979.69
2018-10-05T13:32:57.523Z,95973.48
2018-10-05T13:35:26.537Z,95974.77
2018-10-05T13:37:55.855Z,95979.58
2018-10-05T13:40:25.003Z,95973.77
2018-10-05T13:42:54.714Z,95981.49
2018-10-05T13:45:24.156Z,95975.78
2018-10-05T13:47:53.243Z,95970.03
2018-10-05T13:50:22.437Z,95967.03
2018-10-05T13:52:52.115Z,95969.30
2018-10-05T13:55:21.127Z,95968.57
2018-10-05T13:57:50.263Z,95978.36
2018-10-05T14:00:19.810Z,95980.92
2018-10-05T14:02:49.097Z,95980.92
2018-10-05T14:05:18.233Z,95979.30
2018-10-05T14:07:47.702Z,95969.02
2018-10-05T14:10:16.760Z,95963.97
2018-10-05T14:12:45.763Z,95965.84
2018-10-05T14:15:15.162Z,95959.75
2018-10-05T14:17:44.433Z,95966.05
2018-10-05T14:20:13.524Z,95963.64
2018-10-05T14:22:42.787Z,95967.58
2018-10-05T14:25:12.030Z,95965.94
2018-10-05T14:27:41.274Z,95969.45
2018-10-05T14:30:10.718Z,95966.77
2018-10-05T14:32:39.912Z,95961.95
2018-10-05T14:35:09.041Z,95971.13
2018-10-05T14:37:38.655Z,95976.23
2018-10-05T14:40:07.741Z,95972.15
2018-10-05T14:42:37.055Z,95967.56
2018-10-05T14:45:06.407Z,95961.25
2018-10-05T14:47:35.620Z,95969.58
2018-10-05T14:50:04.830Z,95962.16
2018-10-05T14:52:34.175Z,95966.42
2018-10-05T14:55:03.260Z,95973.99
2018-10-05T14:57:32.461Z,95972.16
2018-10-05T15:00:01.639Z,95967.81
2018-10-05T15:02:30.825Z,95971.83
2018-10-05T15:04:59.955Z,95970.86
2018-10-05T15:07:29.330Z,95969.22
2018-10-05T15:09:58.361Z,95971.86
2018-10-05T15:12:27.520Z,95968.14
2018-10-05T15:14:56.842Z,95977.34
2018-10-05T15:17:25.975Z,95978.55
2018-10-05T15:19:55.099Z,95979.63
2018-10-05T15:22:24.439Z,95984.36
2018-10-05T15:24:53.622Z,95968.35
2018-10-05T15:27:22.804Z,95983.16
2018-10-05T15:29:52.058Z,95979.11
2018-10-05T15:32:21.301Z,95983.80
2018-10-05T15:34:50.731Z,95987.92
2018-10-05T15:37:20.204Z,95987.73
2018-10-05T15:39:49.441Z,95985.65
2018-10-05T15:42:18.726Z,95980.80
2018-10-05T15:44:48.283Z,95980.61
2018-10-05T15:47:17.888Z,95974.06
2018-10-05T15:49:47.287Z,95987.75
2018-10-05T15:52:16.726Z,95988.53
2018-10-05T15:54:45.975Z,95991.58
2018-10-05T15:57:15.168Z,95996.24
2018-10-05T15:59:44.435Z,95989.87
2018-10-05T16:02:13.675Z,96001.95
2018-10-05T16:04:42.866Z,95990.69
2018-10-05T16:07:12.126Z,95996.91
2018-10-05T16:09:41.226Z,95988.94
2018-10-05T16:12:10.260Z,95997.52
2018-10-05T16:14:38.951Z,95991.41
2018-10-05T16:17:08.275Z,95992.37
2018-10-05T16:19:40.324Z,95994.91
2018-10-05T16:22:10.280Z,95987.28
2018-10-05T16:24:42.141Z,95992.92
2018-10-05T16:27:12.419Z,95988.20
2018-10-05T16:29:41.366Z,95987.36
2018-10-05T16:32:11.146Z,95986.21
2018-10-05T16:34:40.463Z,95995.04
2018-10-05T16:37:09.625Z,95988.95
2018-10-05T16:39:38.716Z,95987.11
2018-10-05T16:42:08.727Z,95990.39
2018-10-05T16:44:37.719Z,95991.20
2018-10-05T16:47:07.050Z,95995.83
2018-10-05T16:49:36.312Z,95982.27
2018-10-05T16:52:05.217Z,95998.09
2018-10-05T16:54:34.064Z,96004.52
2018-10-05T16:57:03.448Z,96007.21
2018-10-05T16:59:33.140Z,96003.86
2018-10-05T17:02:02.041Z,96002.17
2018-10-05T17:04:31.444Z,96013.16
2018-10-05T17:07:00.099Z,96015.94
2018-10-05T17:09:29.083Z,96007.77
2018-10-05T17:11:57.943Z,96015.63
2018-10-05T17:14:27.271Z,96018.89
2018-10-05T17:16:56.276Z,96025.05
2018-10-05T17:19:25.607Z,96019.84
2018-10-05T17:21:54.458Z,96027.79
2018-10-05T17:24:23.588Z,96031.36
2018-10-05T17:26:52.624Z,96033.73
2018-10-05T17:29:21.827Z,96026.11
2018-10-05T17:31:50.840Z,96032.16
2018-10-05T17:34:20.618Z,96037.42
2018-10-05T17:36:49.435Z,96037.91
2018-10-05T17:39:18.314Z,96031.85
2018-10-05T17:41:47.374Z,96035.84
2018-10-05T17:44:16.338Z,96026.61
2018-10-05T17:46:45.975Z,96024.52
2018-10-05T17:49:15.271Z,96036.05
2018-10-05T17:51:44.334Z,96035.88
2018-10-05T17:54:13.247Z,96043.73
2018-10-05T17:56:42.476Z,96041.64
2018-10-05T17:59:11.549Z,96041.94
2018-10-05T18:01:40.561Z,96050.73
2018-10-05T18:04:09.596Z,96045.20
2018-10-05T18:06:38.651Z,96050.30
2018-10-05T18:09:07.882Z,96049.38
2018-10-05T18:11:36.875Z,96053.70
2018-10-05T18:14:05.656Z,96057.56
2018-10-05T18:16:34.835Z,96050.50
2018-10-05T18:19:04.147Z,96051.44
2018-10-05T18:21:33.282Z,96058.19
2018-10-05T18:24:02.338Z,96043.75
2018-10-05T18:26:31.535Z,96048.84
2018-10-05T18:29:00.780Z,96047.63
2018-10-05T18:31:29.813Z,96050.27
2018-10-05T18:33:59.278Z,96054.43
2018-10-05T18:36:28.362Z,96049.67
2018-10-05T18:38:58.153Z,96041.42
2018-10-05T18:41:27.781Z,96040.17
2018-10-05T18:43:56.640Z,96050.64
2018-10-05T18:46:25.806Z,96045.12
2018-10-05T18:48:55.004Z,96055.84
2018-10-05T18:51:24.104Z,96051.58
2018-10-05T18:53:52.956Z,96053.37
2018-10-05T18:56:33.095Z,96046.34
2018-10-05T18:59:02.477Z,96051.70
2018-10-05T19:01:31.350Z,96054.45
2018-10-05T19:04:00.556Z,96058.91
2018-10-05T19:06:29.466Z,96050.61
2018-10-05T19:08:58.392Z,96063.34
2018-10-05T19:11:27.643Z,96056.91
2018-10-05T19:13:57.191Z,96051.39
2018-10-05T19:16:26.863Z,96057.83
2018-10-05T19:18:56.451Z,96056.12
2018-10-05T19:21:30.002Z,96056.27
2018-10-05T19:24:02.688Z,96054.13
2018-10-05T19:26:33.344Z,96057.03
2018-10-05T19:29:02.387Z,96058.71
2018-10-05T19:31:32.067Z,96057.80
2018-10-05T19:34:01.795Z,96057.80
2018-10-05T19:36:30.545Z,96055.33
2018-10-05T19:39:02.469Z,96063.61
2018-10-05T19:41:31.565Z,96057.91
2018-10-05T19:44:00.672Z,96059.73
2018-10-05T19:46:30.398Z,96060.50
2018-10-05T19:49:00.095Z,96058.09
2018-10-05T19:51:30.104Z,96059.14
2018-10-05T19:53:59.335Z,96058.35
2018-10-05T19:56:28.307Z,96056.05
2018-10-05T19:58:57.187Z,96061.55
2018-10-05T20:01:26.434Z,96063.86
2018-10-05T20:03:55.620Z,96064.14
2018-10-05T20:06:24.588Z,96075.79
2018-10-05T20:08:53.798Z,96067.03
2018-10-05T20:11:23.056Z,96065.16
2018-10-05T20:13:51.687Z,96070.07
2018-10-05T20:16:21.432Z,96067.56
2018-10-05T20:18:50.389Z,96070.59
2018-10-05T20:21:19.267Z,96070.91
2018-10-05T20:23:48.474Z,96073.66
2018-10-05T20:26:17.243Z,96073.47
2018-10-05T20:28:46.756Z,96070.55
2018-10-05T20:31:15.976Z,96069.34
2018-10-05T20:33:45.055Z,96061.20
2018-10-05T20:36:14.280Z,96072.83
2018-10-05T20:38:43.085Z,96074.98
2018-10-05T20:41:12.038Z,96072.36
2018-10-05T20:43:40.903Z,96071.62
2018-10-05T20:46:09.655Z,96076.83
2018-10-05T20:48:38.765Z,96073.14
2018-10-05T20:51:08.435Z,96072.09
2018-10-05T20:53:38.019Z,96070.55
2018-10-05T20:56:07.203Z,96069.78
2018-10-05T20:58:36.099Z,96074.21
2018-10-05T21:01:05.467Z,96074.52
2018-10-05T21:03:34.429Z,96074.21
2018-10-05T21:06:03.491Z,96080.16
2018-10-05T21:08:33.035Z,96076.94
2018-10-05T21:11:02.467Z,96079.80
2018-10-05T21:13:31.275Z,96079.66
2018-10-05T21:16:00.286Z,96077.65
2018-10-05T21:18:29.312Z,96076.11
2018-10-05T21:20:58.099Z,96087.87
2018-10-05T21:23:30.823Z,96084.98
2018-10-05T21:26:00.197Z,96085.89
2018-10-05T21:28:29.319Z,96086.76
2018-10-05T21:30:58.167Z,96093.34
2018-10-05T21:33:27.091Z,96089.14
2018-10-05T21:35:56.375Z,96093.56
2018-10-05T21:38:25.236Z,96096.76
2018-10-05T21:40:54.057Z,96089.44
2018-10-05T21:43:22.991Z,96094.98
2018-10-05T21:45:51.726Z,96090.20
2018-10-05T21:48:20.733Z,96085.74
2018-10-05T21:50:50.092Z,96098.78
2018-10-05T21:53:19.045Z,96083.28
2018-10-05T21:55:48.120Z,96090.13
2018-10-05T21:58:17.381Z,96084.92
2018-10-05T22:00:46.419Z,96090.39
2018-10-05T22:03:15.718Z,96096.63
2018-10-05T22:05:45.129Z,96086.70
2018-10-05T22:08:14.707Z,96085.45
2018-10-05T22:10:43.814Z,96079.67
2018-10-05T22:13:13.195Z,96084.98
2018-10-05T22:15:42.207Z,96082.83
2018-10-05T22:18:11.031Z,96086.44
2018-10-05T22:20:40.131Z,96081.79
2018-10-05T22:23:09.308Z,96079.59
2018-10-05T22:25:38.302Z,96079.72
2018-10-05T22:28:07.400Z,96071.93
2018-10-05T22:30:36.192Z,96070.81
2018-10-05T22:33:05.094Z,96075.84
2018-10-05T22:35:34.895Z,96068.48
2018-10-05T22:38:03.844Z,96065.69
2018-10-05T22:40:33.712Z,96064.36
2018-10-05T22:43:03.010Z,96068.08
2018-10-05T22:45:32.107Z,96068.33
2018-10-05T22:48:01.579Z,96074.26
2018-10-05T22:50:30.444Z,96074.31
2018-10-05T22:52:59.813Z,96079.77
2018-10-05T22:55:28.654Z,96083.33
2018-10-05T22:57:58.363Z,96075.44
2018-10-05T23:00:27.595Z,96075.55
2018-10-05T23:02:56.942Z,96070.77
2018-10-05T23:05:25.872Z,96071.08
2018-10-05T23:07:54.619Z,96072.15
2018-10-05T23:10:24.109Z,96079.02
2018-10-05T23:12:53.282Z,96073.20
2018-10-05T23:15:22.340Z,96072.31
2018-10-05T23:17:51.415Z,96077.59
2018-10-05T23:20:20.324Z,96083.03
2018-10-05T23:22:49.388Z,96086.36
2018-10-05T23:25:18.752Z,96085.58
2018-10-05T23:27:48.704Z,96083.89
2018-10-05T23:30:18.095Z,96076.45
2018-10-05T23:32:47.446Z,96063.62
2018-10-05T23:35:17.398Z,96067.89
2018-10-05T23:37:46.366Z,96068.34
2018-10-05T23:40:15.520Z,96067.91
2018-10-05T23:42:44.546Z,96063.17
2018-10-05T23:45:13.507Z,96055.70
2018-10-05T23:47:42.527Z,96058.48
2018-10-05T23:50:11.525Z,96060.03
2018-10-05T23:52:48.620Z,96060.69
2018-10-05T23:55:17.653Z,96065.70
2018-10-05T23:57:47.088Z,96068.44
